Green Lofoten — P3MG8 — position and weather

sailwx.info

Track history (hours):
 
Tides and Currents Weather Stations Pressure Air Temp Water Temp Dewpoint Dewpoint Depression Visibility Wind Speed Wind Dir Waves Ship Positions

Green Lofoten

Last reported at 2017-Jan-17 14:33 UTC. Time now 2017-Jan-17 15:13 UTC.
Position N 66°37' E 011°54'.

Length 98 m; draft 6.2 m.

Type: Ship. MMSI: 212857000.

Date/timePositionNaut miles runAvg speedWind from/ knotsBaromVisibWave heightAir tempDewpointWater temp
2017-Jan-17 14:33N 66°37' E 011°54'8 8.0
2017-Jan-17 13:33N 66°43' E 012°06'9 8.1
2017-Jan-17 12:26N 66°51' E 012°20'61 8.9
2017-Jan-17 05:32N 67°39' E 013°58'1010.1
2017-Jan-17 04:32N 67°46' E 014°16'79 8.8
2017-Jan-16 19:33N 68°43' E 016°43'1110.9
2017-Jan-16 18:31N 68°53' E 016°59'1111.4
2017-Jan-16 17:33N 69°02' E 017°18'1211.5
2017-Jan-16 16:33N 69°08' E 017°44'9 9.1
2017-Jan-16 15:33N 69°16' E 017°58'11 0.3
2017-Jan-15 00:12N 69°27' E 018°07'811.2
2017-Jan-14 23:30N 69°19' E 018°00'10 9.9
2017-Jan-14 22:33N 69°10' E 017°56'1212.1
2017-Jan-14 21:33N 69°05' E 017°25'1212.4
2017-Jan-14 20:33N 68°55' E 017°04'1312.6
2017-Jan-14 19:33N 68°45' E 016°45'  
2017-Jan-10 03:34N 59°06' E 004°54'1313.0
2017-Jan-10 02:34N 58°55' E 005°07'1313.1
2017-Jan-10 01:34N 58°44' E 005°20'1312.9
2017-Jan-10 00:34N 58°33' E 005°33'1312.7
2017-Jan-09 23:33N 58°24' E 005°50'1212.3
2017-Jan-09 22:33N 58°15' E 006°06'1212.2
2017-Jan-09 21:32N 58°06' E 006°22'1212.2
2017-Jan-09 20:33N 57°59' E 006°40'1111.2
2017-Jan-09 19:33N 57°57' E 007°01'10412.6
2017-Jan-09 11:17N 57°50' E 010°16'1013.8
2017-Jan-09 10:33N 57°49' E 010°35'9 9.0
2017-Jan-09 09:33N 57°41' E 010°40'4 3.4
2017-Jan-09 08:29N 57°39' E 010°35'0 0.0
2017-Jan-09 07:32N 57°39' E 010°35'0 0.0
2017-Jan-09 06:26N 57°39' E 010°35'0 0.0
2017-Jan-09 05:32N 57°39' E 010°35'0 0.0
2017-Jan-09 04:26N 57°39' E 010°35'0 0.0
2017-Jan-09 03:26N 57°39' E 010°35'0 0.0
2017-Jan-09 02:26N 57°39' E 010°35'0 0.0
2017-Jan-09 01:32N 57°39' E 010°35'0 0.0
2017-Jan-09 00:29N 57°39' E 010°35'0 0.0
2017-Jan-08 23:29N 57°39' E 010°35'0 0.0
2017-Jan-08 22:32N 57°39' E 010°35'0 0.0
2017-Jan-08 21:26N 57°39' E 010°35'0 0.0
2017-Jan-08 20:32N 57°39' E 010°35'0 0.0
2017-Jan-08 19:17N 57°39' E 010°35'0 0.0
2017-Jan-08 18:32N 57°39' E 010°35'0 0.0
2017-Jan-08 17:26N 57°39' E 010°35'0 0.0
2017-Jan-08 16:32N 57°39' E 010°35'0 0.0
2017-Jan-08 15:29N 57°39' E 010°35'0 0.0
2017-Jan-08 14:32N 57°39' E 010°35'0 0.0
2017-Jan-08 13:26N 57°39' E 010°35'0 0.0
2017-Jan-08 12:26N 57°39' E 010°35'0 0.0
2017-Jan-08 11:29N 57°39' E 010°35'0 0.0
2017-Jan-08 10:17N 57°39' E 010°35'0 0.0
2017-Jan-08 09:20N 57°39' E 010°35'0 0.0
2017-Jan-08 08:29N 57°39' E 010°35'0 0.0
2017-Jan-08 07:32N 57°38' E 010°35'0 0.0
2017-Jan-08 06:29N 57°38' E 010°35'0 0.0
2017-Jan-08 05:26N 57°38' E 010°35'0 0.0
2017-Jan-08 04:32N 57°38' E 010°35'0 0.0
2017-Jan-08 03:26N 57°38' E 010°35'0 0.0
2017-Jan-08 02:05N 57°38' E 010°35'0 0.0
2017-Jan-08 01:29N 57°38' E 010°35'0 0.1
2017-Jan-08 00:32N 57°38' E 010°35'0 0.0
2017-Jan-07 23:32N 57°38' E 010°35'0 0.0
2017-Jan-07 22:32N 57°38' E 010°35'0 0.0
2017-Jan-07 21:29N 57°38' E 010°35'0 0.0
2017-Jan-07 20:32N 57°38' E 010°35'0 0.0
2017-Jan-07 19:32N 57°38' E 010°35'0 0.0
2017-Jan-07 18:29N 57°38' E 010°35'0 0.0
2017-Jan-07 17:26N 57°38' E 010°35'0 0.0
2017-Jan-07 16:29N 57°38' E 010°35'0 0.0
2017-Jan-07 15:32N 57°38' E 010°35'  
Track history (hours):
 
Tides and Currents Weather Stations Pressure Air Temp Water Temp Dewpoint Dewpoint Depression Visibility Wind Speed Wind Dir Waves Ship Positions

Green Lofoten

Last reported at 2017-Jan-17 14:33 UTC. Time now 2017-Jan-17 15:13 UTC.
Position N 66°37' E 011°54'.

Length 98 m; draft 6.2 m.

Type: Ship. MMSI: 212857000.

Date/timePositionNaut miles runAvg speedWind from/ knotsBaromVisibWave heightAir tempDewpointWater temp
2017-Jan-17 14:33N 66°37' E 011°54'8 8.0
2017-Jan-17 13:33N 66°43' E 012°06'9 8.1
2017-Jan-17 12:26N 66°51' E 012°20'61 8.9
2017-Jan-17 05:32N 67°39' E 013°58'1010.1
2017-Jan-17 04:32N 67°46' E 014°16'79 8.8
2017-Jan-16 19:33N 68°43' E 016°43'1110.9
2017-Jan-16 18:31N 68°53' E 016°59'1111.4
2017-Jan-16 17:33N 69°02' E 017°18'1211.5
2017-Jan-16 16:33N 69°08' E 017°44'9 9.1
2017-Jan-16 15:33N 69°16' E 017°58'11 0.3
2017-Jan-15 00:12N 69°27' E 018°07'811.2
2017-Jan-14 23:30N 69°19' E 018°00'10 9.9
2017-Jan-14 22:33N 69°10' E 017°56'1212.1
2017-Jan-14 21:33N 69°05' E 017°25'1212.4
2017-Jan-14 20:33N 68°55' E 017°04'1312.6
2017-Jan-14 19:33N 68°45' E 016°45'  
2017-Jan-10 03:34N 59°06' E 004°54'1313.0
2017-Jan-10 02:34N 58°55' E 005°07'1313.1
2017-Jan-10 01:34N 58°44' E 005°20'1312.9
2017-Jan-10 00:34N 58°33' E 005°33'1312.7
2017-Jan-09 23:33N 58°24' E 005°50'1212.3
2017-Jan-09 22:33N 58°15' E 006°06'1212.2
2017-Jan-09 21:32N 58°06' E 006°22'1212.2
2017-Jan-09 20:33N 57°59' E 006°40'1111.2
2017-Jan-09 19:33N 57°57' E 007°01'10412.6
2017-Jan-09 11:17N 57°50' E 010°16'1013.8
2017-Jan-09 10:33N 57°49' E 010°35'9 9.0
2017-Jan-09 09:33N 57°41' E 010°40'4 3.4
2017-Jan-09 08:29N 57°39' E 010°35'0 0.0
2017-Jan-09 07:32N 57°39' E 010°35'0 0.0
2017-Jan-09 06:26N 57°39' E 010°35'0 0.0
2017-Jan-09 05:32N 57°39' E 010°35'0 0.0
2017-Jan-09 04:26N 57°39' E 010°35'0 0.0
2017-Jan-09 03:26N 57°39' E 010°35'0 0.0
2017-Jan-09 02:26N 57°39' E 010°35'0 0.0
2017-Jan-09 01:32N 57°39' E 010°35'0 0.0
2017-Jan-09 00:29N 57°39' E 010°35'0 0.0
2017-Jan-08 23:29N 57°39' E 010°35'0 0.0
2017-Jan-08 22:32N 57°39' E 010°35'0 0.0
2017-Jan-08 21:26N 57°39' E 010°35'0 0.0
2017-Jan-08 20:32N 57°39' E 010°35'0 0.0
2017-Jan-08 19:17N 57°39' E 010°35'0 0.0
2017-Jan-08 18:32N 57°39' E 010°35'0 0.0
2017-Jan-08 17:26N 57°39' E 010°35'0 0.0
2017-Jan-08 16:32N 57°39' E 010°35'0 0.0
2017-Jan-08 15:29N 57°39' E 010°35'0 0.0
2017-Jan-08 14:32N 57°39' E 010°35'0 0.0
2017-Jan-08 13:26N 57°39' E 010°35'0 0.0
2017-Jan-08 12:26N 57°39' E 010°35'0 0.0
2017-Jan-08 11:29N 57°39' E 010°35'0 0.0
2017-Jan-08 10:17N 57°39' E 010°35'0 0.0
2017-Jan-08 09:20N 57°39' E 010°35'0 0.0
2017-Jan-08 08:29N 57°39' E 010°35'0 0.0
2017-Jan-08 07:32N 57°38' E 010°35'0 0.0
2017-Jan-08 06:29N 57°38' E 010°35'0 0.0
2017-Jan-08 05:26N 57°38' E 010°35'0 0.0
2017-Jan-08 04:32N 57°38' E 010°35'0 0.0
2017-Jan-08 03:26N 57°38' E 010°35'0 0.0
2017-Jan-08 02:05N 57°38' E 010°35'0 0.0
2017-Jan-08 01:29N 57°38' E 010°35'0 0.1
2017-Jan-08 00:32N 57°38' E 010°35'0 0.0
2017-Jan-07 23:32N 57°38' E 010°35'0 0.0
2017-Jan-07 22:32N 57°38' E 010°35'0 0.0
2017-Jan-07 21:29N 57°38' E 010°35'0 0.0
2017-Jan-07 20:32N 57°38' E 010°35'0 0.0
2017-Jan-07 19:32N 57°38' E 010°35'0 0.0
2017-Jan-07 18:29N 57°38' E 010°35'0 0.0
2017-Jan-07 17:26N 57°38' E 010°35'0 0.0
2017-Jan-07 16:29N 57°38' E 010°35'0 0.0
2017-Jan-07 15:32N 57°38' E 010°35'  

Dump ship's entire track history